Time,TemperatureF,DewpointF,PressureIn,WindDirection,WindDirectionDegrees,WindSpeedMPH,WindSpeedGustMPH,Humidity,HourlyPrecipIn,Conditions,Clouds,dailyrainin,SoftwareType,DateUTC
2013-03-02 00:04:00,34.7,19.8,29.85,WNW,287,5.8,5.8,54,0.00,NA,NA,-99.99,VWS Version 10.38,2013-03-02 05:04:00,
2013-03-02 00:09:00,34.7,19.8,29.85,WNW,292,7.6,7.6,54,0.00,NA,NA,-99.99,VWS Version 10.38,2013-03-02 05:09:00,
2013-03-02 00:14:00,34.7,19.3,29.85,West,276,3.1,3.1,53,0.00,NA,NA,-99.99,VWS Version 10.38,2013-03-02 05:14:00,
2013-03-02 00:24:00,34.5,19.2,29.85,WNW,294,4.0,4.0,53,0.00,NA,NA,-99.99,VWS Version 10.38,2013-03-02 05:24:00,
2013-03-02 00:29:00,34.5,19.2,29.85,North,357,3.6,3.6,53,0.00,NA,NA,-99.99,VWS Version 10.38,2013-03-02 05:29:00,
2013-03-02 00:34:00,34.5,18.7,29.88,West,275,6.3,6.3,52,0.00,NA,NA,-99.99,VWS Version 10.38,2013-03-02 05:34:00,
2013-03-02 00:39:00,34.2,18.4,29.88,West,271,5.4,5.4,52,0.00,NA,NA,-99.99,VWS Version 10.38,2013-03-02 05:39:00,
2013-03-02 00:49:00,34.0,18.2,29.85,NW,312,6.3,6.3,52,0.00,NA,NA,-99.99,VWS Version 10.38,2013-03-02 05:49:00,
2013-03-02 00:54:00,33.8,17.6,29.85,West,275,8.7,8.7,51,0.00,NA,NA,-99.99,VWS Version 10.38,2013-03-02 05:54:00,
2013-03-02 00:59:00,33.8,17.6,29.85,WNW,297,5.8,5.8,51,0.00,NA,NA,-99.99,VWS Version 10.38,2013-03-02 05:59:00,
2013-03-02 01:09:00,33.6,17.4,29.88,NW,316,4.0,4.0,51,0.00,NA,NA,-99.99,VWS Version 10.38,2013-03-02 06:09:00,
2013-03-02 01:19:00,33.6,17.4,29.88,NW,318,2.2,2.2,51,0.00,NA,NA,-99.99,VWS Version 10.38,2013-03-02 06:19:00,
2013-03-02 01:24:00,33.4,17.3,29.88,West,281,5.8,5.8,51,0.00,NA,NA,-99.99,VWS Version 10.38,2013-03-02 06:24:00,
2013-03-02 01:29:00,33.3,17.1,29.88,WNW,295,2.7,2.7,51,0.00,NA,NA,-99.99,VWS Version 10.38,2013-03-02 06:29:00,
2013-03-02 01:34:00,33.1,16.9,29.88,WNW,285,5.4,5.4,51,0.00,NA,NA,-99.99,VWS Version 10.38,2013-03-02 06:34:00,
2013-03-02 01:44:00,32.7,17.0,29.88,West,274,3.1,3.1,52,0.00,NA,NA,-99.99,VWS Version 10.38,2013-03-02 06:44:00,
2013-03-02 01:49:00,32.7,17.0,29.85,WNW,298,4.9,4.9,52,0.00,NA,NA,-99.99,VWS Version 10.38,2013-03-02 06:49:00,
2013-03-02 01:54:00,32.7,17.5,29.85,West,261,3.1,3.1,53,0.00,NA,NA,-99.99,VWS Version 10.38,2013-03-02 06:54:00,
2013-03-02 01:59:00,32.9,17.7,29.85,WNW,295,2.2,2.2,53,0.00,NA,NA,-99.99,VWS Version 10.38,2013-03-02 06:59:00,
2013-03-02 02:04:00,33.1,18.3,29.85,West,274,3.1,3.1,54,0.00,NA,NA,-99.99,VWS Version 10.38,2013-03-02 07:04:00,
2013-03-02 02:09:00,33.3,18.4,29.85,NW,318,5.4,5.4,54,0.00,NA,NA,-99.99,VWS Version 10.38,2013-03-02 07:09:00,
2013-03-02 02:24:00,33.6,19.6,29.85,WNW,287,3.1,3.1,56,0.00,NA,NA,-99.99,VWS Version 10.38,2013-03-02 07:24:00,
2013-03-02 02:39:00,33.6,19.6,29.85,West,281,3.6,3.6,56,0.00,NA,NA,-99.99,VWS Version 10.38,2013-03-02 07:39:00,
2013-03-02 02:44:00,33.6,19.6,29.85,WNW,286,3.1,3.1,56,0.00,NA,NA,-99.99,VWS Version 10.38,2013-03-02 07:44:00,
2013-03-02 02:49:00,33.8,19.8,29.85,NW,304,3.1,3.1,56,0.00,NA,NA,-99.99,VWS Version 10.38,2013-03-02 07:49:00,
2013-03-02 02:54:00,33.6,19.6,29.85,SW,232,4.9,4.9,56,0.00,NA,NA,-99.99,VWS Version 10.38,2013-03-02 07:54:00,
2013-03-02 03:04:00,33.6,19.6,29.85,WSW,252,2.7,2.7,56,0.00,NA,NA,-99.99,VWS Version 10.38,2013-03-02 08:04:00,
2013-03-02 03:09:00,33.6,19.2,29.85,WNW,293,4.9,4.9,55,0.00,NA,NA,-99.99,VWS Version 10.38,2013-03-02 08:09:00,
2013-03-02 03:14:00,33.6,19.2,29.85,WSW,247,3.6,3.6,55,0.00,NA,NA,-99.99,VWS Version 10.38,2013-03-02 08:14:00,
2013-03-02 03:19:00,33.6,19.2,29.85,WNW,303,3.1,3.1,55,0.00,NA,NA,-99.99,VWS Version 10.38,2013-03-02 08:19:00,
2013-03-02 03:24:00,33.6,19.2,29.85,WNW,284,3.1,3.1,55,0.00,NA,NA,-99.99,VWS Version 10.38,2013-03-02 08:24:00,
2013-03-02 03:34:00,33.4,19.0,29.85,NW,314,3.1,3.1,55,0.00,NA,NA,-99.99,VWS Version 10.38,2013-03-02 08:34:00,
2013-03-02 03:39:00,33.4,19.0,29.85,WNW,285,5.4,5.4,55,0.00,NA,NA,-99.99,VWS Version 10.38,2013-03-02 08:39:00,
2013-03-02 03:44:00,33.4,19.0,29.85,West,274,2.2,2.2,55,0.00,NA,NA,-99.99,VWS Version 10.38,2013-03-02 08:44:00,
2013-03-02 03:49:00,33.4,19.0,29.85,NW,322,4.9,4.9,55,0.00,NA,NA,-99.99,VWS Version 10.38,2013-03-02 08:49:00,
2013-03-02 03:54:00,33.4,19.0,29.85,West,279,5.4,5.4,55,0.00,NA,NA,-99.99,VWS Version 10.38,2013-03-02 08:54:00,
2013-03-02 03:59:00,33.4,19.0,29.85,West,275,0.0,0.0,55,0.00,NA,NA,-99.99,VWS Version 10.38,2013-03-02 08:59:00,
2013-03-02 04:09:00,33.3,18.9,29.85,West,261,4.0,4.0,55,0.00,NA,NA,-99.99,VWS Version 10.38,2013-03-02 09:09:00,
2013-03-02 04:19:00,33.1,18.7,29.85,NNW,339,6.3,6.3,55,0.00,NA,NA,-99.99,VWS Version 10.38,2013-03-02 09:19:00,
2013-03-02 04:24:00,33.1,18.7,29.85,NNW,338,0.0,0.0,55,0.00,NA,NA,-99.99,VWS Version 10.38,2013-03-02 09:24:00,
2013-03-02 04:29:00,33.1,18.7,29.85,WNW,285,4.9,4.9,55,0.00,NA,NA,-99.99,VWS Version 10.38,2013-03-02 09:29:00,
2013-03-02 04:34:00,33.1,18.7,29.88,WSW,244,2.2,2.2,55,0.00,NA,NA,-99.99,VWS Version 10.38,2013-03-02 09:34:00,
2013-03-02 04:44:00,33.1,18.7,29.88,West,268,3.1,3.1,55,0.00,NA,NA,-99.99,VWS Version 10.38,2013-03-02 09:44:00,
2013-03-02 04:54:00,33.1,18.7,29.88,NW,307,2.7,2.7,55,0.00,NA,NA,-99.99,VWS Version 10.38,2013-03-02 09:54:00,
2013-03-02 04:59:00,33.1,19.1,29.88,NNW,334,3.1,3.1,56,0.00,NA,NA,-99.99,VWS Version 10.38,2013-03-02 09:59:00,
2013-03-02 05:05:00,33.1,18.3,29.88,WNW,291,3.6,3.6,54,0.00,NA,NA,-99.99,VWS Version 10.38,2013-03-02 10:05:00,
2013-03-02 05:15:00,32.9,18.1,29.88,WNW,297,2.7,2.7,54,0.00,NA,NA,-99.99,VWS Version 10.38,2013-03-02 10:15:00,
2013-03-02 05:25:00,32.5,17.8,29.88,WNW,302,3.1,3.1,54,0.00,NA,NA,-99.99,VWS Version 10.38,2013-03-02 10:25:00,
2013-03-02 05:30:00,32.5,17.8,29.88,WNW,296,2.7,2.7,54,0.00,NA,NA,-99.99,VWS Version 10.38,2013-03-02 10:30:00,
2013-03-02 05:35:00,32.2,17.4,29.85,NW,313,0.0,0.0,54,0.00,NA,NA,-99.99,VWS Version 10.38,2013-03-02 10:35:00,
2013-03-02 05:50:00,32.2,17.8,29.85,West,280,4.5,4.5,55,0.00,NA,NA,-99.99,VWS Version 10.38,2013-03-02 10:50:00,
2013-03-02 06:00:00,32.5,18.6,29.85,WSW,242,4.9,4.9,56,0.00,NA,NA,-99.99,VWS Version 10.38,2013-03-02 11:00:00,
2013-03-02 06:10:00,32.5,18.6,29.85,NW,321,5.4,5.4,56,0.00,NA,NA,-99.99,VWS Version 10.38,2013-03-02 11:10:00,
2013-03-02 06:15:00,32.5,18.2,29.85,NNW,335,4.9,4.9,55,0.00,NA,NA,-99.99,VWS Version 10.38,2013-03-02 11:15:00,
2013-03-02 06:24:00,32.4,18.0,29.85,WNW,291,2.7,2.7,55,0.00,NA,NA,-99.99,VWS Version 10.38,2013-03-02 11:24:00,
2013-03-02 06:29:00,32.4,18.0,29.85,NW,320,3.6,3.6,55,0.00,NA,NA,-99.99,VWS Version 10.38,2013-03-02 11:29:00,
2013-03-02 06:34:00,32.4,18.0,29.85,West,263,0.0,0.0,55,0.00,NA,NA,-99.99,VWS Version 10.38,2013-03-02 11:34:00,
2013-03-02 06:44:00,32.2,17.4,29.85,WNW,286,3.6,3.6,54,0.00,NA,NA,-99.99,VWS Version 10.38,2013-03-02 11:44:00,
2013-03-02 06:54:00,32.2,17.8,29.85,West,266,3.6,3.6,55,0.00,NA,NA,-99.99,VWS Version 10.38,2013-03-02 11:54:00,
2013-03-02 06:59:00,32.2,17.8,29.85,NW,324,3.1,3.1,55,0.00,NA,NA,-99.99,VWS Version 10.38,2013-03-02 11:59:00,
2013-03-02 07:04:00,32.2,17.8,29.85,West,265,3.6,3.6,55,0.00,NA,NA,-99.99,VWS Version 10.38,2013-03-02 12:04:00,
2013-03-02 07:09:00,32.4,18.0,29.85,WNW,294,2.7,2.7,55,0.00,NA,NA,-99.99,VWS Version 10.38,2013-03-02 12:09:00,
2013-03-02 07:14:00,32.7,18.8,29.85,West,266,5.4,5.4,56,0.00,NA,NA,-99.99,VWS Version 10.38,2013-03-02 12:14:00,
2013-03-02 07:19:00,32.9,18.5,29.85,NW,305,5.4,5.4,55,0.00,NA,NA,-99.99,VWS Version 10.38,2013-03-02 12:19:00,
2013-03-02 07:24:00,33.1,18.7,29.85,NNW,331,3.1,3.1,55,0.00,NA,NA,-99.99,VWS Version 10.38,2013-03-02 12:24:00,
2013-03-02 07:29:00,33.1,18.3,29.85,NNW,337,3.1,3.1,54,0.00,NA,NA,-99.99,VWS Version 10.38,2013-03-02 12:29:00,
2013-03-02 07:34:00,33.3,18.4,29.85,NNW,337,3.1,3.1,54,0.00,NA,NA,-99.99,VWS Version 10.38,2013-03-02 12:34:00,
2013-03-02 07:39:00,33.4,18.2,29.85,WSW,244,7.6,7.6,53,0.00,NA,NA,-99.99,VWS Version 10.38,2013-03-02 12:39:00,
2013-03-02 07:44:00,33.6,17.4,29.85,NNW,346,0.0,0.0,51,0.00,NA,NA,-99.99,VWS Version 10.38,2013-03-02 12:44:00,
2013-03-02 07:49:00,33.8,17.6,29.85,NNW,332,3.1,3.1,51,0.00,NA,NA,-99.99,VWS Version 10.38,2013-03-02 12:49:00,
2013-03-02 07:54:00,34.5,17.8,29.85,SSW,192,4.0,4.0,50,0.00,NA,NA,-99.99,VWS Version 10.38,2013-03-02 12:54:00,
2013-03-02 07:59:00,34.9,17.2,29.85,WNW,289,6.3,6.3,48,0.00,NA,NA,-99.99,VWS Version 10.38,2013-03-02 12:59:00,
2013-03-02 08:04:00,35.6,17.9,29.85,WNW,302,0.0,0.0,48,0.00,NA,NA,-99.99,VWS Version 10.38,2013-03-02 13:04:00,
2013-03-02 08:09:00,36.3,18.0,29.85,West,270,3.6,3.6,47,0.00,NA,NA,-99.99,VWS Version 10.38,2013-03-02 13:09:00,
2013-03-02 08:14:00,36.9,18.5,29.85,West,268,3.1,3.1,47,0.00,NA,NA,-99.99,VWS Version 10.38,2013-03-02 13:14:00,
2013-03-02 08:19:00,37.2,16.8,29.85,NW,326,3.6,3.6,43,0.00,NA,NA,-99.99,VWS Version 10.38,2013-03-02 13:19:00,
2013-03-02 08:29:00,37.4,16.4,29.85,NW,310,3.1,3.1,42,0.00,NA,NA,-99.99,VWS Version 10.38,2013-03-02 13:29:00,
2013-03-02 08:34:00,37.2,15.7,29.85,West,267,6.3,6.3,41,0.00,NA,NA,-99.99,VWS Version 10.38,2013-03-02 13:34:00,
2013-03-02 08:39:00,37.2,15.7,29.85,West,278,4.9,4.9,41,0.00,NA,NA,-99.99,VWS Version 10.38,2013-03-02 13:39:00,
2013-03-02 08:44:00,37.2,15.7,29.85,WSW,241,5.8,5.8,41,0.00,NA,NA,-99.99,VWS Version 10.38,2013-03-02 13:44:00,
2013-03-02 08:49:00,37.2,15.7,29.85,East,81,4.9,4.9,41,0.00,NA,NA,-99.99,VWS Version 10.38,2013-03-02 13:49:00,
2013-03-02 08:54:00,37.2,15.7,29.85,SSW,213,3.1,3.1,41,0.00,NA,NA,-99.99,VWS Version 10.38,2013-03-02 13:54:00,
2013-03-02 09:04:00,37.9,16.4,29.85,NW,309,6.3,6.3,41,0.00,NA,NA,-99.99,VWS Version 10.38,2013-03-02 14:04:00,
2013-03-02 09:09:00,38.1,15.9,29.85,West,266,4.0,4.0,40,0.00,NA,NA,-99.99,VWS Version 10.38,2013-03-02 14:09:00,
2013-03-02 09:14:00,38.5,16.3,29.85,WNW,295,3.6,3.6,40,0.00,NA,NA,-99.99,VWS Version 10.38,2013-03-02 14:14:00,
2013-03-02 09:19:00,38.5,16.3,29.85,West,280,4.0,4.0,40,0.00,NA,NA,-99.99,VWS Version 10.38,2013-03-02 14:19:00,
2013-03-02 09:24:00,38.7,16.4,29.85,West,280,3.1,3.1,40,0.00,NA,NA,-99.99,VWS Version 10.38,2013-03-02 14:24:00,
2013-03-02 09:29:00,38.7,15.9,29.85,WSW,241,5.4,5.4,39,0.00,NA,NA,-99.99,VWS Version 10.38,2013-03-02 14:29:00,
2013-03-02 09:39:00,39.2,16.3,29.85,WSW,258,5.8,5.8,39,0.00,NA,NA,-99.99,VWS Version 10.38,2013-03-02 14:39:00,
2013-03-02 09:44:00,39.2,16.3,29.85,West,275,3.6,3.6,39,0.00,NA,NA,-99.99,VWS Version 10.38,2013-03-02 14:44:00,
2013-03-02 09:49:00,39.6,16.7,29.85,West,276,7.6,7.6,39,0.00,NA,NA,-99.99,VWS Version 10.38,2013-03-02 14:49:00,
2013-03-02 09:54:00,39.4,15.9,29.85,West,275,3.6,3.6,38,0.00,NA,NA,-99.99,VWS Version 10.38,2013-03-02 14:54:00,
2013-03-02 09:59:00,39.4,16.5,29.85,West,268,6.3,6.3,39,0.00,NA,NA,-99.99,VWS Version 10.38,2013-03-02 14:59:00,
2013-03-02 10:09:00,39.4,16.5,29.85,NNW,341,4.0,4.0,39,0.00,NA,NA,-99.99,VWS Version 10.38,2013-03-02 15:09:00,
2013-03-02 10:14:00,39.6,16.7,29.85,West,275,8.1,8.1,39,0.00,NA,NA,-99.99,VWS Version 10.38,2013-03-02 15:14:00,
2013-03-02 10:19:00,39.4,16.5,29.85,WSW,239,3.6,3.6,39,0.00,NA,NA,-99.99,VWS Version 10.38,2013-03-02 15:19:00,
2013-03-02 10:24:00,39.0,16.2,29.85,West,259,5.8,5.8,39,0.00,NA,NA,-99.99,VWS Version 10.38,2013-03-02 15:24:00,
2013-03-02 10:29:00,39.4,16.5,29.85,WNW,298,5.4,5.4,39,0.00,NA,NA,-99.99,VWS Version 10.38,2013-03-02 15:29:00,
2013-03-02 10:34:00,39.7,16.8,29.85,NNW,335,5.4,5.4,39,0.00,NA,NA,-99.99,VWS Version 10.38,2013-03-02 15:34:00,
2013-03-02 10:44:00,40.1,15.9,29.85,West,275,4.0,4.0,37,0.00,NA,NA,-99.99,VWS Version 10.38,2013-03-02 15:44:00,
2013-03-02 10:49:00,40.3,16.7,29.85,West,275,4.0,4.0,38,0.00,NA,NA,-99.99,VWS Version 10.38,2013-03-02 15:49:00,
2013-03-02 10:54:00,40.5,17.5,29.85,NNW,334,0.0,0.0,39,0.00,NA,NA,-99.99,VWS Version 10.38,2013-03-02 15:54:00,
2013-03-02 10:59:00,41.0,17.4,29.85,WNW,301,5.8,5.8,38,0.00,NA,NA,-99.99,VWS Version 10.38,2013-03-02 15:59:00,
2013-03-02 11:04:00,40.6,16.4,29.85,West,265,3.6,3.6,37,0.00,NA,NA,-99.99,VWS Version 10.38,2013-03-02 16:04:00,
2013-03-02 11:09:00,41.0,15.5,29.85,NW,318,5.8,5.8,35,0.00,NA,NA,-99.99,VWS Version 10.38,2013-03-02 16:09:00,
2013-03-02 11:14:00,41.0,15.5,29.85,SW,234,3.1,3.1,35,0.00,NA,NA,-99.99,VWS Version 10.38,2013-03-02 16:14:00,
2013-03-02 11:19:00,41.2,16.3,29.85,SW,234,3.1,3.1,36,0.00,NA,NA,-99.99,VWS Version 10.38,2013-03-02 16:19:00,
2013-03-02 11:24:00,41.2,16.3,29.85,SW,234,3.1,3.1,36,0.00,NA,NA,-99.99,VWS Version 10.38,2013-03-02 16:24:00,
2013-03-02 11:29:00,41.5,16.6,29.85,SW,231,0.0,0.0,36,0.00,NA,NA,-99.99,VWS Version 10.38,2013-03-02 16:29:00,
2013-03-02 11:34:00,41.7,16.8,29.82,SW,236,5.8,5.8,36,0.00,NA,NA,-99.99,VWS Version 10.38,2013-03-02 16:34:00,
2013-03-02 11:39:00,41.5,16.6,29.82,WNW,303,5.8,5.8,36,0.00,NA,NA,-99.99,VWS Version 10.38,2013-03-02 16:39:00,
2013-03-02 11:44:00,41.5,15.9,29.82,NW,326,4.0,4.0,35,0.00,NA,NA,-99.99,VWS Version 10.38,2013-03-02 16:44:00,
2013-03-02 11:49:00,41.5,15.9,29.82,WNW,288,11.0,11.0,35,0.00,NA,NA,-99.99,VWS Version 10.38,2013-03-02 16:49:00,
2013-03-02 11:54:00,41.2,15.0,29.82,SW,233,4.9,4.9,34,0.00,NA,NA,-99.99,VWS Version 10.38,2013-03-02 16:54:00,
2013-03-02 11:59:00,41.4,15.8,29.82,West,272,6.3,6.3,35,0.00,NA,NA,-99.99,VWS Version 10.38,2013-03-02 16:59:00,
2013-03-02 12:04:00,41.7,16.1,29.82,WSW,237,7.6,7.6,35,0.00,NA,NA,-99.99,VWS Version 10.38,2013-03-02 17:04:00,
2013-03-02 12:09:00,42.1,16.4,29.82,WSW,241,2.7,2.7,35,0.00,NA,NA,-99.99,VWS Version 10.38,2013-03-02 17:09:00,
2013-03-02 12:14:00,42.4,16.7,29.82,WSW,241,2.7,2.7,35,0.00,NA,NA,-99.99,VWS Version 10.38,2013-03-02 17:14:00,
2013-03-02 12:19:00,42.4,16.7,29.82,West,274,3.6,3.6,35,0.00,NA,NA,-99.99,VWS Version 10.38,2013-03-02 17:19:00,
2013-03-02 12:24:00,42.3,15.9,29.82,West,272,4.9,4.9,34,0.00,NA,NA,-99.99,VWS Version 10.38,2013-03-02 17:24:00,
2013-03-02 12:29:00,41.9,14.9,29.82,West,264,3.6,3.6,33,0.00,NA,NA,-99.99,VWS Version 10.38,2013-03-02 17:29:00,
2013-03-02 12:34:00,41.7,15.4,29.82,WSW,255,5.4,5.4,34,0.00,NA,NA,-99.99,VWS Version 10.38,2013-03-02 17:34:00,
2013-03-02 12:39:00,42.3,15.9,29.82,West,261,3.1,3.1,34,0.00,NA,NA,-99.99,VWS Version 10.38,2013-03-02 17:39:00,
2013-03-02 12:44:00,42.4,15.4,29.82,WNW,297,7.6,7.6,33,0.00,NA,NA,-99.99,VWS Version 10.38,2013-03-02 17:44:00,
2013-03-02 12:49:00,42.4,15.4,29.82,NW,311,3.1,3.1,33,0.00,NA,NA,-99.99,VWS Version 10.38,2013-03-02 17:49:00,
2013-03-02 12:54:00,42.3,15.2,29.82,WSW,257,4.0,4.0,33,0.00,NA,NA,-99.99,VWS Version 10.38,2013-03-02 17:54:00,
2013-03-02 12:59:00,42.8,15.7,29.82,WSW,239,5.4,5.4,33,0.00,NA,NA,-99.99,VWS Version 10.38,2013-03-02 17:59:00,
2013-03-02 13:04:00,43.0,15.9,29.82,West,259,5.8,5.8,33,0.00,NA,NA,-99.99,VWS Version 10.38,2013-03-02 18:04:00,
2013-03-02 13:09:00,43.0,15.9,29.82,NNW,328,5.4,5.4,33,0.00,NA,NA,-99.99,VWS Version 10.38,2013-03-02 18:09:00,
2013-03-02 13:14:00,42.8,15.0,29.82,WSW,237,5.4,5.4,32,0.00,NA,NA,-99.99,VWS Version 10.38,2013-03-02 18:14:00,
2013-03-02 13:19:00,42.8,15.7,29.82,SW,220,4.0,4.0,33,0.00,NA,NA,-99.99,VWS Version 10.38,2013-03-02 18:19:00,
2013-03-02 13:24:00,43.0,15.9,29.82,NW,314,0.0,0.0,33,0.00,NA,NA,-99.99,VWS Version 10.38,2013-03-02 18:24:00,
2013-03-02 13:29:00,42.6,14.8,29.82,North,0,3.1,3.1,32,0.00,NA,NA,-99.99,VWS Version 10.38,2013-03-02 18:29:00,
2013-03-02 13:34:00,42.1,14.4,29.82,West,266,2.2,2.2,32,0.00,NA,NA,-99.99,VWS Version 10.38,2013-03-02 18:34:00,
2013-03-02 13:39:00,41.9,14.9,29.82,West,259,0.0,0.0,33,0.00,NA,NA,-99.99,VWS Version 10.38,2013-03-02 18:39:00,
2013-03-02 13:44:00,42.1,15.1,29.82,NNW,330,4.0,4.0,33,0.00,NA,NA,-99.99,VWS Version 10.38,2013-03-02 18:44:00,
2013-03-02 13:49:00,41.7,14.8,29.82,West,272,5.8,5.8,33,0.00,NA,NA,-99.99,VWS Version 10.38,2013-03-02 18:49:00,
2013-03-02 13:54:00,41.9,14.9,29.82,West,260,3.1,3.1,33,0.00,NA,NA,-99.99,VWS Version 10.38,2013-03-02 18:54:00,
2013-03-02 14:04:00,41.7,14.8,29.82,WNW,288,3.6,3.6,33,0.00,NA,NA,-99.99,VWS Version 10.38,2013-03-02 19:04:00,
2013-03-02 14:09:00,41.4,14.4,29.82,WSW,254,6.3,6.3,33,0.00,NA,NA,-99.99,VWS Version 10.38,2013-03-02 19:09:00,
2013-03-02 14:14:00,41.4,15.1,29.82,WSW,254,6.3,6.3,34,0.00,NA,NA,-99.99,VWS Version 10.38,2013-03-02 19:14:00,
2013-03-02 14:19:00,41.2,14.3,29.79,WSW,250,3.1,3.1,33,0.00,NA,NA,-99.99,VWS Version 10.38,2013-03-02 19:19:00,
2013-03-02 14:24:00,41.4,15.1,29.79,West,277,3.6,3.6,34,0.00,NA,NA,-99.99,VWS Version 10.38,2013-03-02 19:24:00,
2013-03-02 14:29:00,41.7,15.4,29.79,WSW,244,3.6,3.6,34,0.00,NA,NA,-99.99,VWS Version 10.38,2013-03-02 19:29:00,
2013-03-02 14:34:00,41.7,15.4,29.79,WNW,298,3.6,3.6,34,0.00,NA,NA,-99.99,VWS Version 10.38,2013-03-02 19:34:00,
2013-03-02 14:39:00,41.7,15.4,29.79,NW,315,4.9,4.9,34,0.00,NA,NA,-99.99,VWS Version 10.38,2013-03-02 19:39:00,
2013-03-02 14:44:00,41.7,15.4,29.79,SW,224,4.0,4.0,34,0.00,NA,NA,-99.99,VWS Version 10.38,2013-03-02 19:44:00,
2013-03-02 14:49:00,41.7,15.4,29.79,West,259,4.0,4.0,34,0.00,NA,NA,-99.99,VWS Version 10.38,2013-03-02 19:49:00,
2013-03-02 14:54:00,41.2,14.3,29.79,North,9,4.0,4.0,33,0.00,NA,NA,-99.99,VWS Version 10.38,2013-03-02 19:54:00,
2013-03-02 14:59:00,40.6,14.5,29.79,WNW,284,4.9,4.9,34,0.00,NA,NA,-99.99,VWS Version 10.38,2013-03-02 19:59:00,
2013-03-02 15:04:00,40.5,14.3,29.79,West,271,3.6,3.6,34,0.00,NA,NA,-99.99,VWS Version 10.38,2013-03-02 20:04:00,
2013-03-02 15:09:00,40.6,15.1,29.79,WNW,297,5.8,5.8,35,0.00,NA,NA,-99.99,VWS Version 10.38,2013-03-02 20:09:00,
2013-03-02 15:14:00,40.6,15.1,29.79,NW,308,3.6,3.6,35,0.00,NA,NA,-99.99,VWS Version 10.38,2013-03-02 20:14:00,
2013-03-02 15:19:00,40.6,15.1,29.79,WNW,302,4.0,4.0,35,0.00,NA,NA,-99.99,VWS Version 10.38,2013-03-02 20:19:00,
2013-03-02 15:24:00,40.5,15.0,29.79,North,353,4.0,4.0,35,0.00,NA,NA,-99.99,VWS Version 10.38,2013-03-02 20:24:00,
2013-03-02 15:29:00,40.5,15.0,29.79,WNW,298,2.7,2.7,35,0.00,NA,NA,-99.99,VWS Version 10.38,2013-03-02 20:29:00,
2013-03-02 15:34:00,40.3,14.8,29.79,West,264,4.9,4.9,35,0.00,NA,NA,-99.99,VWS Version 10.38,2013-03-02 20:34:00,
2013-03-02 15:39:00,40.1,14.7,29.79,WNW,300,0.0,0.0,35,0.00,NA,NA,-99.99,VWS Version 10.38,2013-03-02 20:39:00,
2013-03-02 15:44:00,40.1,14.7,29.79,NW,310,2.7,2.7,35,0.00,NA,NA,-99.99,VWS Version 10.38,2013-03-02 20:44:00,
2013-03-02 15:49:00,39.9,14.5,29.79,NW,312,3.1,3.1,35,0.00,NA,NA,-99.99,VWS Version 10.38,2013-03-02 20:49:00,
2013-03-02 15:54:00,39.7,15.0,29.79,WSW,239,7.6,7.6,36,0.00,NA,NA,-99.99,VWS Version 10.38,2013-03-02 20:54:00,
2013-03-02 15:59:00,39.7,15.0,29.79,WSW,256,4.0,4.0,36,0.00,NA,NA,-99.99,VWS Version 10.38,2013-03-02 20:59:00,
2013-03-02 16:09:00,39.2,14.5,29.79,NNW,330,2.7,2.7,36,0.00,NA,NA,-99.99,VWS Version 10.38,2013-03-02 21:09:00,
2013-03-02 16:14:00,39.2,15.1,29.79,SSW,200,7.6,7.6,37,0.00,NA,NA,-99.99,VWS Version 10.38,2013-03-02 21:14:00,
2013-03-02 16:19:00,38.8,14.8,29.79,WNW,303,3.1,3.1,37,0.00,NA,NA,-99.99,VWS Version 10.38,2013-03-02 21:19:00,
2013-03-02 16:24:00,38.7,15.3,29.79,WSW,252,5.4,5.4,38,0.00,NA,NA,-99.99,VWS Version 10.38,2013-03-02 21:24:00,
2013-03-02 16:29:00,38.5,15.7,29.79,West,280,3.6,3.6,39,0.00,NA,NA,-99.99,VWS Version 10.38,2013-03-02 21:29:00,
2013-03-02 16:34:00,38.3,15.5,29.79,West,280,3.6,3.6,39,0.00,NA,NA,-99.99,VWS Version 10.38,2013-03-02 21:34:00,
2013-03-02 16:39:00,38.1,15.4,29.79,West,280,3.6,3.6,39,0.00,NA,NA,-99.99,VWS Version 10.38,2013-03-02 21:39:00,
2013-03-02 16:44:00,37.9,15.2,29.79,West,262,4.0,4.0,39,0.00,NA,NA,-99.99,VWS Version 10.38,2013-03-02 21:44:00,
2013-03-02 16:49:00,37.8,15.0,29.79,WSW,254,2.7,2.7,39,0.00,NA,NA,-99.99,VWS Version 10.38,2013-03-02 21:49:00,
2013-03-02 16:54:00,37.8,15.0,29.79,NNW,341,4.0,4.0,39,0.00,NA,NA,-99.99,VWS Version 10.38,2013-03-02 21:54:00,
2013-03-02 16:59:00,37.6,14.9,29.79,West,262,3.6,3.6,39,0.00,NA,NA,-99.99,VWS Version 10.38,2013-03-02 21:59:00,
2013-03-02 17:04:00,37.4,14.7,29.79,WSW,249,3.1,3.1,39,0.00,NA,NA,-99.99,VWS Version 10.38,2013-03-02 22:04:00,
2013-03-02 17:09:00,37.2,15.1,29.79,WSW,252,4.0,4.0,40,0.00,NA,NA,-99.99,VWS Version 10.38,2013-03-02 22:09:00,
2013-03-02 17:14:00,37.2,15.1,29.79,NW,313,2.7,2.7,40,0.00,NA,NA,-99.99,VWS Version 10.38,2013-03-02 22:14:00,
2013-03-02 17:19:00,37.0,15.0,29.79,WSW,241,0.0,0.0,40,0.00,NA,NA,-99.99,VWS Version 10.38,2013-03-02 22:19:00,
2013-03-02 17:24:00,36.9,14.8,29.79,NW,320,3.6,3.6,40,0.00,NA,NA,-99.99,VWS Version 10.38,2013-03-02 22:24:00,
2013-03-02 17:29:00,36.7,14.6,29.79,WNW,289,2.7,2.7,40,0.00,NA,NA,-99.99,VWS Version 10.38,2013-03-02 22:29:00,
2013-03-02 17:34:00,36.7,14.6,29.79,West,259,3.1,3.1,40,0.00,NA,NA,-99.99,VWS Version 10.38,2013-03-02 22:34:00,
2013-03-02 20:09:00,35.4,15.7,29.82,WNW,295,0.0,0.0,44,0.00,NA,NA,-99.99,VWS Version 10.38,2013-03-03 01:09:00,
2013-03-02 20:14:00,35.4,16.2,29.82,WNW,288,3.1,3.1,45,0.00,NA,NA,-99.99,VWS Version 10.38,2013-03-03 01:14:00,
2013-03-02 20:19:00,35.2,15.5,29.82,NNW,329,2.7,2.7,44,0.00,NA,NA,-99.99,VWS Version 10.38,2013-03-03 01:19:00,
2013-03-02 20:24:00,35.1,15.4,29.82,WNW,289,2.7,2.7,44,0.00,NA,NA,-99.99,VWS Version 10.38,2013-03-03 01:24:00,
2013-03-02 20:29:00,35.1,15.9,29.82,NW,315,0.0,0.0,45,0.00,NA,NA,-99.99,VWS Version 10.38,2013-03-03 01:29:00,
2013-03-02 20:34:00,35.1,15.9,29.82,NW,313,0.0,0.0,45,0.00,NA,NA,-99.99,VWS Version 10.38,2013-03-03 01:34:00,
2013-03-02 20:44:00,35.1,15.9,29.82,NW,304,2.7,2.7,45,0.00,NA,NA,-99.99,VWS Version 10.38,2013-03-03 01:44:00,
2013-03-02 20:49:00,35.1,15.9,29.82,North,8,4.0,4.0,45,0.00,NA,NA,-99.99,VWS Version 10.38,2013-03-03 01:49:00,
2013-03-02 20:54:00,35.1,15.9,29.82,NNW,340,2.7,2.7,45,0.00,NA,NA,-99.99,VWS Version 10.38,2013-03-03 01:54:00,
2013-03-02 20:59:00,35.1,15.9,29.82,NW,307,2.7,2.7,45,0.00,NA,NA,-99.99,VWS Version 10.38,2013-03-03 01:59:00,
2013-03-02 21:04:00,34.9,15.7,29.82,West,275,0.0,0.0,45,0.00,NA,NA,-99.99,VWS Version 10.38,2013-03-03 02:04:00,
2013-03-02 21:14:00,34.9,15.7,29.82,NW,324,3.1,3.1,45,0.00,NA,NA,-99.99,VWS Version 10.38,2013-03-03 02:14:00,
2013-03-02 21:19:00,34.9,15.7,29.82,WNW,291,0.0,0.0,45,0.00,NA,NA,-99.99,VWS Version 10.38,2013-03-03 02:19:00,
2013-03-02 21:24:00,34.7,15.6,29.82,WNW,293,2.7,2.7,45,0.00,NA,NA,-99.99,VWS Version 10.38,2013-03-03 02:24:00,
2013-03-02 21:29:00,34.7,15.6,29.82,NW,320,2.7,2.7,45,0.00,NA,NA,-99.99,VWS Version 10.38,2013-03-03 02:29:00,
2013-03-02 21:34:00,34.7,15.6,29.82,WNW,303,4.0,4.0,45,0.00,NA,NA,-99.99,VWS Version 10.38,2013-03-03 02:34:00,
2013-03-02 21:44:00,34.5,15.4,29.82,North,353,4.0,4.0,45,0.00,NA,NA,-99.99,VWS Version 10.38,2013-03-03 02:44:00,
2013-03-02 21:49:00,34.3,15.2,29.82,NW,320,3.6,3.6,45,0.00,NA,NA,-99.99,VWS Version 10.38,2013-03-03 02:49:00,
2013-03-02 21:54:00,34.3,15.2,29.82,WSW,256,5.4,5.4,45,0.00,NA,NA,-99.99,VWS Version 10.38,2013-03-03 02:54:00,
2013-03-02 21:59:00,34.3,15.2,29.82,North,0,0.0,0.0,45,0.00,NA,NA,-99.99,VWS Version 10.38,2013-03-03 02:59:00,
2013-03-02 22:04:00,34.2,15.1,29.82,WNW,297,0.0,0.0,45,0.00,NA,NA,-99.99,VWS Version 10.38,2013-03-03 03:04:00,
2013-03-02 22:09:00,34.2,15.6,29.82,WNW,293,4.0,4.0,46,0.00,NA,NA,-99.99,VWS Version 10.38,2013-03-03 03:09:00,
2013-03-02 22:19:00,34.0,15.4,29.82,West,281,3.1,3.1,46,0.00,NA,NA,-99.99,VWS Version 10.38,2013-03-03 03:19:00,
2013-03-02 22:24:00,34.0,15.4,29.82,West,269,5.8,5.8,46,0.00,NA,NA,-99.99,VWS Version 10.38,2013-03-03 03:24:00,
2013-03-02 22:29:00,33.8,15.7,29.82,WNW,283,3.1,3.1,47,0.00,NA,NA,-99.99,VWS Version 10.38,2013-03-03 03:29:00,
2013-03-02 22:34:00,33.6,16.0,29.82,NW,324,5.4,5.4,48,0.00,NA,NA,-99.99,VWS Version 10.38,2013-03-03 03:34:00,
2013-03-02 22:39:00,33.6,16.0,29.82,NW,317,4.9,4.9,48,0.00,NA,NA,-99.99,VWS Version 10.38,2013-03-03 03:39:00,
2013-03-02 22:44:00,33.4,16.4,29.82,NW,308,4.5,4.5,49,0.00,NA,NA,-99.99,VWS Version 10.38,2013-03-03 03:44:00,
2013-03-02 22:54:00,33.3,16.2,29.82,WNW,287,4.0,4.0,49,0.00,NA,NA,-99.99,VWS Version 10.38,2013-03-03 03:54:00,
2013-03-02 22:59:00,33.3,16.6,29.82,NW,321,4.0,4.0,50,0.00,NA,NA,-99.99,VWS Version 10.38,2013-03-03 03:59:00,
2013-03-02 23:04:00,33.1,16.9,29.82,NW,316,2.7,2.7,51,0.00,NA,NA,-99.99,VWS Version 10.38,2013-03-03 04:04:00,
2013-03-02 23:09:00,33.1,16.9,29.82,WNW,288,2.2,2.2,51,0.00,NA,NA,-99.99,VWS Version 10.38,2013-03-03 04:09:00,
2013-03-02 23:14:00,33.1,16.9,29.82,WNW,290,3.6,3.6,51,0.00,NA,NA,-99.99,VWS Version 10.38,2013-03-03 04:14:00,
2013-03-02 23:24:00,33.1,16.9,29.82,NW,309,4.0,4.0,51,0.00,NA,NA,-99.99,VWS Version 10.38,2013-03-03 04:24:00,
2013-03-02 23:29:00,33.1,16.9,29.82,West,273,4.0,4.0,51,0.00,NA,NA,-99.99,VWS Version 10.38,2013-03-03 04:29:00,
2013-03-02 23:34:00,33.1,16.9,29.82,NW,320,2.2,2.2,51,0.00,NA,NA,-99.99,VWS Version 10.38,2013-03-03 04:34:00,
2013-03-02 23:39:00,33.1,17.4,29.82,WNW,288,0.0,0.0,52,0.00,NA,NA,-99.99,VWS Version 10.38,2013-03-03 04:39:00,
2013-03-02 23:44:00,32.9,17.2,29.82,WNW,299,4.5,4.5,52,0.00,NA,NA,-99.99,VWS Version 10.38,2013-03-03 04:44:00,
2013-03-02 23:49:00,32.9,17.2,29.82,West,269,3.1,3.1,52,0.00,NA,NA,-99.99,VWS Version 10.38,2013-03-03 04:49:00,
2013-03-02 23:54:00,32.9,17.2,29.82,WNW,297,0.0,0.0,52,0.00,NA,NA,-99.99,VWS Version 10.38,2013-03-03 04:54:00,